Overview Statistics Trail Chart Weather Telemetry Raw packets
 

This is the latest recevied weather packets stored in our database for station/object WABB. If no packets are shown the sender has not sent any weather packets the latest 10 day(s).

<< 8 9 10 11 12 13 14 >>
Time Temp. Humidity Pressure Rain* Wind** Luminosity Snow
1787843039 26.11° C 84% 1013 hPa 0 mm - - -
1787832033 27.22° C 79% 1012 hPa 0 mm - - -
1787829795 27.78° C 74% 1011 hPa 0 mm - - -
1787827695 28.89° C 70% 1011 hPa 0 mm - - -
1787825526 28.89° C 70% 1010 hPa 0 mm - - -
1787823516 28.89° C 70% 1010 hPa 0 mm - - -
1787821494 30° C 66% 1010 hPa 0 mm - - -
1787819242 30° C 70% 1010 hPa 0 mm - - -
1787817202 30° C 70% 1010 hPa 0 mm - - -
1787815158 30° C 70% 1010 hPa 0 mm - - -
1787813115 30° C 75% 1010 hPa 0 mm - - -
1787808909 31.11° C 66% 1011 hPa 0 mm - - -
1787806894 31.11° C 70% 1012 hPa 0 mm - - -
1787802750 30° C 75% 1013 hPa 0 mm - - -
1787800775 30° C 79% 1013 hPa 0 mm - - -
1787796767 30° C 79% 1014 hPa 0 mm - - -
1787794744 30° C 79% 1014 hPa 0 mm - - -
1787792744 30° C 75% 1014 hPa 0 mm - - -
1787790760 28.89° C 79% 1015 hPa 0 mm - - -
1787788772 27.78° C 79% 1014 hPa 0 mm - - -
1787786711 27.22° C 89% 1014 hPa 0 mm - - -
1787784707 25° C 94% 1013 hPa 0 mm - - -
1787782377 25° C 94% 1013 hPa 0 mm - - -
1787780362 25° C 94% 1013 hPa 0 mm - - -
1787778198 25° C 94% 1013 hPa 0 mm - - -

* Rain latest hour (hover to see other rain measurements)
** Current wind speed in m/s (hover to see current wind gust speed)